createdAt,value
2023-03-16T00:01:23.129Z,9.48
2023-03-16T00:03:50.199Z,8.77
2023-03-16T00:06:47.972Z,10.50
2023-03-16T00:09:15.015Z,8.50
2023-03-16T00:11:42.188Z,9.13
2023-03-16T00:14:09.235Z,8.55
2023-03-16T00:16:36.314Z,9.07
2023-03-16T00:19:03.430Z,9.30
2023-03-16T00:21:32.057Z,8.95
2023-03-16T00:23:59.387Z,9.32
2023-03-16T00:26:26.453Z,8.45
2023-03-16T00:28:54.393Z,8.85
2023-03-16T00:31:24.903Z,9.20
2023-03-16T00:36:19.071Z,9.48
2023-03-16T00:38:46.915Z,10.07
2023-03-16T00:41:14.506Z,10.43
2023-03-16T00:43:41.866Z,9.68
2023-03-16T00:46:09.456Z,9.63
2023-03-16T00:48:36.876Z,10.75
2023-03-16T00:51:06.268Z,10.57
2023-03-16T00:53:36.707Z,8.73
2023-03-16T00:56:04.487Z,8.20
2023-03-16T00:58:35.804Z,7.65
2023-03-16T01:01:06.572Z,8.10
2023-03-16T01:03:33.861Z,8.25
2023-03-16T01:06:05.858Z,8.63
2023-03-16T01:08:33.126Z,8.13
2023-03-16T01:11:06.757Z,8.65
2023-03-16T01:13:34.008Z,7.82
2023-03-16T01:16:01.235Z,8.13
2023-03-16T01:18:28.463Z,7.30
2023-03-16T01:20:55.464Z,7.57
2023-03-16T01:23:22.468Z,8.20
2023-03-16T01:25:53.849Z,7.57
2023-03-16T01:28:24.463Z,8.63
2023-03-16T01:30:58.203Z,8.32
2023-03-16T01:33:25.829Z,7.30
2023-03-16T01:35:53.996Z,7.28
2023-03-16T01:38:21.656Z,7.15
2023-03-16T01:40:51.405Z,7.82
2023-03-16T01:43:22.018Z,8.10
2023-03-16T01:46:00.969Z,7.80
2023-03-16T01:48:28.070Z,9.57
2023-03-16T01:50:55.181Z,10.30
2023-03-16T01:53:22.523Z,11.45
2023-03-16T01:55:49.617Z,11.35
2023-03-16T01:58:16.604Z,13.18
2023-03-16T02:00:45.615Z,13.90
2023-03-16T02:03:13.997Z,14.13
2023-03-16T02:05:59.880Z,13.98
2023-03-16T02:08:27.596Z,12.13
2023-03-16T02:10:55.004Z,12.40
2023-03-16T02:13:22.930Z,9.10
2023-03-16T02:15:50.024Z,10.55
2023-03-16T02:18:17.129Z,8.57
2023-03-16T02:20:47.108Z,8.93
2023-03-16T02:23:18.430Z,7.97
2023-03-16T02:26:01.673Z,7.43
2023-03-16T02:28:28.760Z,10.55
2023-03-16T02:30:55.833Z,11.90
2023-03-16T02:33:22.934Z,11.55
2023-03-16T02:35:50.165Z,12.07
2023-03-16T02:38:17.222Z,13.30
2023-03-16T02:40:44.304Z,14.02
2023-03-16T02:43:16.039Z,12.73
2023-03-16T02:45:47.443Z,11.55
2023-03-16T02:48:15.670Z,11.55
2023-03-16T02:50:47.123Z,11.68
2023-03-16T02:53:14.613Z,10.23
2023-03-16T02:55:41.633Z,9.93
2023-03-16T02:58:08.750Z,10.07
2023-03-16T03:00:35.794Z,9.73
2023-03-16T03:03:03.395Z,9.93
2023-03-16T03:05:30.531Z,9.55
2023-03-16T03:07:57.607Z,9.75
2023-03-16T03:10:24.957Z,9.50
2023-03-16T03:12:52.060Z,10.45
2023-03-16T03:15:19.365Z,10.70
2023-03-16T03:17:46.497Z,10.18
2023-03-16T03:20:16.480Z,9.20
2023-03-16T03:22:45.077Z,9.32
2023-03-16T03:25:14.022Z,9.13
2023-03-16T03:27:42.516Z,9.95
2023-03-16T03:30:13.435Z,9.18
2023-03-16T03:32:41.028Z,10.98
2023-03-16T03:35:08.421Z,9.93
2023-03-16T03:37:35.487Z,8.73
2023-03-16T03:40:11.799Z,9.63
2023-03-16T03:42:40.435Z,9.20
2023-03-16T03:45:07.964Z,9.30
2023-03-16T03:47:35.105Z,9.25
2023-03-16T03:50:02.245Z,9.30
2023-03-16T03:52:29.462Z,9.25
2023-03-16T03:54:56.506Z,7.53
2023-03-16T03:57:23.565Z,7.35
2023-03-16T03:59:50.597Z,6.97
2023-03-16T04:02:17.784Z,8.02
2023-03-16T04:04:44.997Z,7.63
2023-03-16T04:07:12.205Z,7.40
2023-03-16T04:09:39.311Z,6.72
2023-03-16T04:12:06.685Z,6.25
2023-03-16T04:14:33.757Z,6.78
2023-03-16T04:17:00.810Z,6.93
2023-03-16T04:19:28.536Z,7.15
2023-03-16T04:21:55.609Z,8.43
2023-03-16T04:24:22.747Z,8.77
2023-03-16T04:26:49.779Z,8.57
2023-03-16T04:29:18.292Z,8.05
2023-03-16T04:31:45.644Z,8.32
2023-03-16T04:34:12.942Z,7.88
2023-03-16T04:36:40.052Z,8.20
2023-03-16T04:39:07.185Z,8.70
2023-03-16T04:41:34.359Z,8.32
2023-03-16T04:44:01.424Z,9.43
2023-03-16T04:46:29.450Z,12.68
2023-03-16T04:48:58.317Z,13.18
2023-03-16T04:51:25.854Z,16.90
2023-03-16T04:53:52.977Z,15.07
2023-03-16T04:56:20.158Z,12.82
2023-03-16T04:58:50.249Z,12.25
2023-03-16T05:01:18.307Z,12.05
2023-03-16T05:03:45.533Z,11.32
2023-03-16T05:06:12.699Z,10.98
2023-03-16T05:08:40.449Z,10.93
2023-03-16T05:11:07.454Z,10.68
2023-03-16T05:13:34.696Z,10.70
2023-03-16T05:16:01.818Z,8.57
2023-03-16T05:18:28.990Z,9.40
2023-03-16T05:20:56.299Z,9.63
2023-03-16T05:23:23.425Z,9.02
2023-03-16T05:25:50.683Z,14.02
2023-03-16T05:28:17.874Z,13.77
2023-03-16T05:30:47.821Z,9.75
2023-03-16T05:33:14.888Z,10.57
2023-03-16T05:35:42.963Z,9.43
2023-03-16T05:38:10.152Z,11.20
2023-03-16T05:40:37.277Z,10.65
2023-03-16T05:43:04.464Z,11.77
2023-03-16T05:45:31.599Z,12.65
2023-03-16T05:47:58.738Z,12.63
2023-03-16T05:50:26.654Z,12.20
2023-03-16T05:52:54.240Z,10.88
2023-03-16T05:55:21.269Z,13.30
2023-03-16T05:57:48.308Z,12.18
2023-03-16T06:00:16.547Z,12.25
2023-03-16T06:02:44.139Z,12.35
2023-03-16T06:05:11.298Z,11.65
2023-03-16T06:07:38.413Z,11.60
2023-03-16T06:10:05.959Z,10.07
2023-03-16T06:12:34.493Z,8.95
2023-03-16T06:15:02.039Z,8.13
2023-03-16T06:17:29.101Z,7.35
2023-03-16T06:19:56.229Z,9.45
2023-03-16T06:22:23.949Z,9.02
2023-03-16T06:24:51.538Z,9.52
2023-03-16T06:27:20.264Z,10.88
2023-03-16T06:29:47.783Z,9.93
2023-03-16T06:32:15.079Z,10.18
2023-03-16T06:34:42.467Z,9.90
2023-03-16T06:37:09.628Z,11.13
2023-03-16T06:39:36.823Z,10.00
2023-03-16T06:42:04.880Z,9.93
2023-03-16T06:44:32.101Z,10.48
2023-03-16T06:46:59.458Z,11.18
2023-03-16T06:49:26.528Z,11.80
2023-03-16T06:51:53.547Z,11.20
2023-03-16T06:54:20.593Z,11.45
2023-03-16T06:56:47.686Z,9.90
2023-03-16T06:59:14.764Z,10.65
2023-03-16T07:01:42.230Z,12.43
2023-03-16T07:04:09.493Z,13.25
2023-03-16T07:06:36.623Z,12.90
2023-03-16T07:09:04.951Z,12.02
2023-03-16T07:11:32.726Z,11.88
2023-03-16T07:13:59.969Z,10.00
2023-03-16T07:16:27.083Z,10.82
2023-03-16T07:18:54.634Z,9.13
2023-03-16T07:21:21.806Z,11.02
2023-03-16T07:23:48.862Z,11.10
2023-03-16T07:26:15.889Z,10.45
2023-03-16T07:28:42.952Z,9.70
2023-03-16T07:31:10.088Z,9.38
2023-03-16T07:33:37.208Z,8.48
2023-03-16T07:36:04.617Z,8.98
2023-03-16T07:38:32.500Z,7.78
2023-03-16T07:41:02.546Z,7.30
2023-03-16T07:43:29.762Z,7.57
2023-03-16T07:45:56.853Z,6.97
2023-03-16T07:48:24.016Z,6.63
2023-03-16T07:50:51.169Z,6.15
2023-03-16T07:53:18.399Z,5.82
2023-03-16T07:55:45.491Z,5.40
2023-03-16T07:58:12.675Z,5.20
2023-03-16T08:00:39.798Z,4.95
2023-03-16T08:03:07.066Z,4.88
2023-03-16T08:05:34.252Z,4.38
2023-03-16T08:08:01.730Z,4.70
2023-03-16T08:10:29.364Z,4.90
2023-03-16T08:12:56.601Z,5.32
2023-03-16T08:15:25.069Z,5.05
2023-03-16T08:17:52.651Z,5.47
2023-03-16T08:20:19.921Z,5.47
2023-03-16T08:22:47.090Z,6.10
2023-03-16T08:25:14.710Z,5.70
2023-03-16T08:27:42.762Z,4.82
2023-03-16T08:30:11.571Z,5.13
2023-03-16T08:32:41.746Z,5.53
2023-03-16T08:35:09.607Z,4.82
2023-03-16T08:37:36.686Z,4.60
2023-03-16T08:40:06.376Z,5.13
2023-03-16T08:42:33.414Z,5.13
2023-03-16T08:45:00.933Z,5.15
2023-03-16T08:47:27.987Z,5.22
2023-03-16T08:49:55.021Z,5.03
2023-03-16T08:52:23.134Z,5.72
2023-03-16T08:55:02.384Z,6.05
2023-03-16T08:57:30.725Z,5.50
2023-03-16T08:59:57.783Z,4.88
2023-03-16T09:02:25.600Z,4.88
2023-03-16T09:04:52.793Z,4.80
2023-03-16T09:07:20.413Z,4.57
2023-03-16T09:09:47.504Z,4.80
2023-03-16T09:12:14.576Z,4.55
2023-03-16T09:14:41.662Z,4.82
2023-03-16T09:17:08.891Z,4.70
2023-03-16T09:19:52.895Z,4.88
2023-03-16T09:22:21.051Z,5.28
2023-03-16T09:24:48.527Z,4.28
2023-03-16T09:27:15.819Z,4.00
2023-03-16T09:29:43.209Z,4.40
2023-03-16T09:32:11.043Z,3.92
2023-03-16T09:34:38.111Z,3.83
2023-03-16T09:37:05.353Z,4.10
2023-03-16T09:39:32.970Z,3.63
2023-03-16T09:42:02.574Z,3.75
2023-03-16T09:44:48.438Z,3.67
2023-03-16T09:47:16.691Z,3.58
2023-03-16T09:49:44.760Z,2.92
2023-03-16T09:52:16.985Z,3.10
2023-03-16T09:54:49.916Z,3.40
2023-03-16T09:57:30.358Z,3.05
2023-03-16T09:59:58.935Z,3.35
2023-03-16T10:02:29.119Z,3.22
2023-03-16T10:05:15.928Z,3.38
2023-03-16T10:07:52.586Z,3.20
2023-03-16T10:10:28.263Z,3.13
2023-03-16T10:12:55.645Z,3.40
2023-03-16T10:15:30.181Z,3.72
2023-03-16T10:18:02.032Z,3.38
2023-03-16T10:20:32.950Z,3.28
2023-03-16T10:23:02.025Z,3.40
2023-03-16T10:25:35.198Z,3.10
2023-03-16T10:28:02.286Z,3.88
2023-03-16T10:30:36.223Z,3.50
2023-03-16T10:33:15.654Z,3.28
2023-03-16T10:35:47.039Z,3.55
2023-03-16T10:38:41.150Z,3.53
2023-03-16T10:41:22.320Z,3.22
2023-03-16T10:43:53.237Z,3.95
2023-03-16T10:46:20.461Z,3.58
2023-03-16T10:48:54.894Z,3.53
2023-03-16T10:51:23.586Z,3.60
2023-03-16T10:53:50.621Z,3.80
2023-03-16T10:56:22.662Z,3.58
2023-03-16T10:58:49.768Z,3.85
2023-03-16T11:01:18.608Z,3.38
2023-03-16T11:03:49.343Z,3.80
2023-03-16T11:06:26.236Z,3.60
2023-03-16T11:08:53.935Z,3.50
2023-03-16T11:11:32.450Z,3.35
2023-03-16T11:13:59.969Z,3.47
2023-03-16T11:16:30.478Z,3.75
2023-03-16T11:21:43.503Z,4.10
2023-03-16T11:24:12.106Z,2.97
2023-03-16T11:26:39.863Z,3.08
2023-03-16T11:29:13.254Z,3.22
2023-03-16T11:31:42.911Z,3.30
2023-03-16T11:34:14.544Z,3.43
2023-03-16T11:36:48.939Z,3.70
2023-03-16T11:39:22.627Z,3.72
2023-03-16T11:42:01.117Z,3.38
2023-03-16T11:44:48.815Z,3.17
2023-03-16T11:47:20.588Z,3.00
2023-03-16T11:49:49.366Z,3.53
2023-03-16T11:52:17.285Z,3.70
2023-03-16T11:54:56.280Z,3.50
2023-03-16T11:57:41.617Z,3.33
2023-03-16T12:00:18.224Z,3.75
2023-03-16T12:03:24.991Z,3.90
2023-03-16T12:06:23.315Z,3.40
2023-03-16T12:08:50.852Z,4.07
2023-03-16T12:11:21.204Z,3.95
2023-03-16T12:14:03.677Z,3.60
2023-03-16T12:16:46.271Z,3.95
2023-03-16T12:19:21.894Z,3.40
2023-03-16T12:21:49.998Z,3.50
2023-03-16T12:24:22.097Z,3.78
2023-03-16T12:26:49.668Z,3.55
2023-03-16T12:29:20.887Z,3.90
2023-03-16T12:31:50.171Z,4.20
2023-03-16T12:34:20.268Z,3.70
2023-03-16T12:36:53.509Z,4.40
2023-03-16T12:39:40.065Z,4.32
2023-03-16T12:42:24.054Z,3.67
2023-03-16T12:44:54.184Z,3.97
2023-03-16T12:47:25.531Z,4.03
2023-03-16T12:49:52.603Z,4.15
2023-03-16T12:52:20.255Z,4.18
2023-03-16T12:54:52.735Z,4.13
2023-03-16T12:57:19.916Z,4.20
2023-03-16T12:59:47.509Z,4.03
2023-03-16T13:02:22.117Z,4.15
2023-03-16T13:04:51.755Z,4.10
2023-03-16T13:07:19.893Z,5.53
2023-03-16T13:10:14.701Z,4.63
2023-03-16T13:12:42.051Z,3.92
2023-03-16T13:15:19.346Z,4.32
2023-03-16T13:17:47.456Z,4.22
2023-03-16T13:20:29.313Z,4.20
2023-03-16T13:23:09.469Z,4.55
2023-03-16T13:25:41.239Z,3.93
2023-03-16T13:28:09.052Z,3.80
2023-03-16T13:30:36.930Z,3.83
2023-03-16T13:33:13.906Z,3.65
2023-03-16T13:35:41.041Z,4.20
2023-03-16T13:38:14.777Z,3.95
2023-03-16T13:40:48.580Z,3.55
2023-03-16T13:43:19.386Z,3.20
2023-03-16T13:45:46.931Z,3.72
2023-03-16T13:48:14.329Z,3.75
2023-03-16T13:50:42.270Z,3.70
2023-03-16T13:53:16.693Z,3.88
2023-03-16T13:55:45.278Z,3.70
2023-03-16T13:58:20.520Z,3.85
2023-03-16T14:00:47.520Z,3.90
2023-03-16T14:03:16.075Z,3.80
2023-03-16T14:05:43.206Z,3.97
2023-03-16T14:08:20.553Z,4.20
2023-03-16T14:10:47.642Z,4.30
2023-03-16T14:13:32.310Z,4.05
2023-03-16T14:16:03.549Z,4.65
2023-03-16T14:18:37.341Z,4.20
2023-03-16T14:21:13.460Z,4.10
2023-03-16T14:23:41.603Z,3.60
2023-03-16T14:26:13.018Z,4.03
2023-03-16T14:28:40.226Z,4.20
2023-03-16T14:31:09.646Z,5.03
2023-03-16T14:33:37.810Z,3.85
2023-03-16T14:36:10.586Z,4.18
2023-03-16T14:38:38.068Z,4.00
2023-03-16T14:41:18.032Z,3.80
2023-03-16T14:43:49.532Z,3.92
2023-03-16T14:46:18.970Z,4.18
2023-03-16T14:48:45.997Z,4.22
2023-03-16T14:51:13.813Z,3.78
2023-03-16T14:53:40.967Z,4.20
2023-03-16T14:56:14.380Z,4.05
2023-03-16T14:58:41.825Z,4.63
2023-03-16T15:01:10.988Z,4.40
2023-03-16T15:03:38.225Z,4.35
2023-03-16T15:06:05.800Z,4.45
2023-03-16T15:08:33.674Z,4.05
2023-03-16T15:11:01.359Z,4.30
2023-03-16T15:13:47.101Z,4.10
2023-03-16T15:16:14.423Z,4.10
2023-03-16T15:18:41.772Z,4.25
2023-03-16T15:21:12.886Z,4.70
2023-03-16T15:23:40.211Z,4.20
2023-03-16T15:26:07.443Z,3.80
2023-03-16T15:28:34.471Z,3.72
2023-03-16T15:31:02.331Z,5.00
2023-03-16T15:33:29.388Z,4.07
2023-03-16T15:35:57.041Z,3.85
2023-03-16T15:38:30.111Z,4.60
2023-03-16T15:40:57.143Z,4.10
2023-03-16T15:43:24.958Z,4.50
2023-03-16T15:45:52.446Z,4.15
2023-03-16T15:48:21.564Z,4.30
2023-03-16T15:50:50.987Z,3.88
2023-03-16T15:53:41.300Z,4.43
2023-03-16T15:56:19.397Z,3.80
2023-03-16T15:58:46.549Z,3.83
2023-03-16T16:01:23.928Z,3.90
2023-03-16T16:03:51.761Z,3.97
2023-03-16T16:06:18.855Z,4.00
2023-03-16T16:08:45.965Z,4.00
2023-03-16T16:11:31.139Z,4.20
2023-03-16T16:13:58.603Z,4.35
2023-03-16T16:16:26.994Z,4.30
2023-03-16T16:18:54.053Z,3.47
2023-03-16T16:21:24.075Z,3.95
2023-03-16T16:26:18.536Z,3.90
2023-03-16T16:28:47.506Z,3.78
2023-03-16T16:31:14.540Z,3.58
2023-03-16T16:33:41.570Z,3.80
2023-03-16T16:36:12.233Z,3.83
2023-03-16T16:38:39.464Z,4.38
2023-03-16T16:41:07.652Z,3.38
2023-03-16T16:43:38.610Z,3.42
2023-03-16T16:46:06.499Z,3.55
2023-03-16T16:48:37.347Z,3.30
2023-03-16T16:51:04.883Z,3.22
2023-03-16T16:53:31.942Z,4.20
2023-03-16T16:55:59.056Z,3.50
2023-03-16T16:58:26.330Z,3.72
2023-03-16T17:00:56.908Z,4.35
2023-03-16T17:05:51.865Z,3.10
2023-03-16T17:08:19.043Z,3.65
2023-03-16T17:10:46.512Z,4.22
2023-03-16T17:13:30.230Z,3.88
2023-03-16T17:15:57.606Z,3.95
2023-03-16T17:18:24.989Z,4.30
2023-03-16T17:20:52.278Z,5.82
2023-03-16T17:23:19.313Z,4.78
2023-03-16T17:25:46.297Z,4.80
2023-03-16T17:28:15.733Z,3.97
2023-03-16T17:30:43.786Z,4.03
2023-03-16T17:33:13.228Z,3.78
2023-03-16T17:35:41.368Z,3.53
2023-03-16T17:38:21.954Z,3.70
2023-03-16T17:40:49.148Z,3.55
2023-03-16T17:43:16.778Z,3.25
2023-03-16T17:45:43.992Z,3.78
2023-03-16T17:48:15.194Z,4.05
2023-03-16T17:50:42.212Z,3.90
2023-03-16T17:53:09.260Z,3.72
2023-03-16T17:55:36.317Z,3.00
2023-03-16T17:58:03.392Z,3.13
2023-03-16T18:00:32.179Z,3.45
2023-03-16T18:03:03.265Z,3.28
2023-03-16T18:05:31.105Z,3.85
2023-03-16T18:07:59.866Z,3.42
2023-03-16T18:10:28.123Z,3.20
2023-03-16T18:12:56.825Z,3.50
2023-03-16T18:15:24.507Z,3.58
2023-03-16T18:17:52.612Z,3.30
2023-03-16T18:20:34.422Z,4.50
2023-03-16T18:23:01.801Z,3.28
2023-03-16T18:25:38.833Z,3.17
2023-03-16T18:28:06.492Z,3.55
2023-03-16T18:30:33.649Z,3.42
2023-03-16T18:33:00.994Z,3.40
2023-03-16T18:35:28.318Z,3.40
2023-03-16T18:37:56.076Z,3.33
2023-03-16T18:40:23.598Z,3.00
2023-03-16T18:42:51.049Z,3.08
2023-03-16T18:45:18.100Z,3.08
2023-03-16T18:47:47.687Z,3.60
2023-03-16T18:50:33.052Z,3.40
2023-03-16T18:53:00.162Z,3.40
2023-03-16T18:55:28.716Z,3.10
2023-03-16T18:57:57.236Z,3.30
2023-03-16T19:00:26.415Z,3.50
2023-03-16T19:03:03.333Z,3.22
2023-03-16T19:05:33.699Z,3.90
2023-03-16T19:08:00.763Z,3.40
2023-03-16T19:10:28.542Z,3.72
2023-03-16T19:12:55.705Z,3.70
2023-03-16T19:15:23.966Z,4.65
2023-03-16T19:17:51.180Z,4.18
2023-03-16T19:20:19.403Z,4.07
2023-03-16T19:22:47.185Z,4.10
2023-03-16T19:25:18.019Z,4.15
2023-03-16T19:27:45.512Z,4.15
2023-03-16T19:30:33.339Z,4.28
2023-03-16T19:33:00.738Z,5.43
2023-03-16T19:35:44.347Z,4.40
2023-03-16T19:38:15.718Z,4.40
2023-03-16T19:40:42.753Z,4.90
2023-03-16T19:43:17.350Z,4.50
2023-03-16T19:45:44.426Z,4.80
2023-03-16T19:48:15.197Z,5.20
2023-03-16T19:50:42.285Z,4.70
2023-03-16T19:53:14.355Z,4.55
2023-03-16T19:55:41.337Z,4.50
2023-03-16T19:58:11.213Z,4.45
2023-03-16T20:00:38.750Z,4.80
2023-03-16T20:03:06.186Z,4.47
2023-03-16T20:05:33.727Z,4.85
2023-03-16T20:08:00.831Z,4.93
2023-03-16T20:10:28.630Z,5.90
2023-03-16T20:12:56.437Z,5.13
2023-03-16T20:15:32.410Z,5.00
2023-03-16T20:17:59.977Z,4.82
2023-03-16T20:20:28.040Z,4.95
2023-03-16T20:22:57.432Z,5.43
2023-03-16T20:25:24.721Z,4.80
2023-03-16T20:27:54.425Z,4.47
2023-03-16T20:30:21.570Z,4.17
2023-03-16T20:32:48.656Z,4.95
2023-03-16T20:35:19.897Z,4.70
2023-03-16T20:37:46.976Z,5.45
2023-03-16T20:40:14.199Z,4.45
2023-03-16T20:42:41.505Z,4.65
2023-03-16T20:45:16.597Z,4.80
2023-03-16T20:47:43.679Z,4.75
2023-03-16T20:50:17.851Z,4.70
2023-03-16T20:52:44.827Z,4.18
2023-03-16T20:55:15.762Z,4.25
2023-03-16T20:57:43.615Z,4.95
2023-03-16T21:00:27.693Z,4.68
2023-03-16T21:02:54.812Z,4.45
2023-03-16T21:05:21.826Z,4.43
2023-03-16T21:07:49.759Z,5.57
2023-03-16T21:10:18.159Z,5.32
2023-03-16T21:12:45.873Z,5.63
2023-03-16T21:15:32.240Z,6.53
2023-03-16T21:17:59.479Z,6.72
2023-03-16T21:20:27.505Z,6.60
2023-03-16T21:22:54.607Z,7.10
2023-03-16T21:25:25.655Z,6.70
2023-03-16T21:27:53.965Z,6.85
2023-03-16T21:30:20.999Z,6.47
2023-03-16T21:32:48.036Z,5.60
2023-03-16T21:35:15.295Z,5.90
2023-03-16T21:37:42.451Z,6.00
2023-03-16T21:40:20.692Z,6.10
2023-03-16T21:42:47.871Z,5.50
2023-03-16T21:45:15.054Z,6.03
2023-03-16T21:47:42.166Z,6.53
2023-03-16T21:50:28.956Z,5.47
2023-03-16T21:52:56.210Z,6.13
2023-03-16T21:55:25.744Z,5.95
2023-03-16T21:57:52.882Z,6.32
2023-03-16T22:00:25.736Z,7.95
2023-03-16T22:02:53.809Z,6.20
2023-03-16T22:05:33.152Z,6.60
2023-03-16T22:08:00.520Z,6.38
2023-03-16T22:10:28.484Z,6.45
2023-03-16T22:12:55.870Z,8.07
2023-03-16T22:15:25.125Z,5.85
2023-03-16T22:17:53.005Z,6.43
2023-03-16T22:20:21.617Z,6.15
2023-03-16T22:22:48.825Z,6.07
2023-03-16T22:25:23.240Z,6.68
2023-03-16T22:27:50.627Z,6.05
2023-03-16T22:30:25.401Z,7.07
2023-03-16T22:32:53.537Z,6.35
2023-03-16T22:35:26.436Z,5.70
2023-03-16T22:38:00.504Z,6.40
2023-03-16T22:40:29.153Z,6.05
2023-03-16T22:42:56.561Z,6.03
2023-03-16T22:45:24.728Z,5.72
2023-03-16T22:47:52.306Z,5.97
2023-03-16T22:50:19.760Z,5.63
2023-03-16T22:52:47.253Z,5.55
2023-03-16T22:55:21.521Z,5.82
2023-03-16T22:57:49.969Z,5.32
2023-03-16T23:00:21.196Z,5.80
2023-03-16T23:02:49.462Z,5.45
2023-03-16T23:05:20.701Z,6.60
2023-03-16T23:07:47.848Z,7.07
2023-03-16T23:10:15.974Z,6.13
2023-03-16T23:12:43.053Z,6.35
2023-03-16T23:15:16.631Z,6.90
2023-03-16T23:17:43.784Z,7.55
2023-03-16T23:20:20.654Z,7.22
2023-03-16T23:22:47.953Z,6.25
2023-03-16T23:25:15.554Z,6.57
2023-03-16T23:27:42.708Z,6.18
2023-03-16T23:30:16.743Z,6.85
2023-03-16T23:32:44.245Z,6.05
2023-03-16T23:35:18.615Z,5.68
2023-03-16T23:37:45.700Z,6.47
2023-03-16T23:40:13.145Z,6.22
2023-03-16T23:42:40.617Z,6.00
2023-03-16T23:45:09.091Z,5.70
2023-03-16T23:47:36.359Z,5.78
2023-03-16T23:50:03.849Z,5.97
2023-03-16T23:52:31.388Z,6.35
2023-03-16T23:54:58.478Z,5.88
2023-03-16T23:57:25.573Z,6.22
2023-03-16T23:59:52.569Z,7.40
